Time;durP1;ratioP1;P1;durP2;ratioP2;P2;SDS_P1;SDS_P2;PMS_P1;PMS_P2;Temp;Humidity;BMP_temperature;BMP_pressure;BME280_temperature;BME280_humidity;BME280_pressure;Samples;Min_cycle;Max_cycle;Signal;HPM_P1;HPM_P2
2022/05/24 00:00:17;;;;;;;14.45;11.35;;;15.20;99.90;;;;;;5081422;28;20427;-64
2022/05/24 00:02:43;;;;;;;13.68;9.93;;;15.20;99.90;;;;;;5082665;28;20040;-64
2022/05/24 00:05:10;;;;;;;13.75;10.63;;;15.20;99.90;;;;;;5082482;28;20029;-63
2022/05/24 00:07:37;;;;;;;15.15;10.45;;;15.10;99.90;;;;;;5079674;28;20119;-63
2022/05/24 00:10:05;;;;;;;12.05;8.75;;;15.10;99.90;;;;;;5076888;28;20170;-65
2022/05/24 00:12:31;;;;;;;12.80;8.93;;;15.10;99.90;;;;;;5084506;28;20044;-64
2022/05/24 00:17:41;;;;;;;14.32;8.02;;;15.10;99.90;;;;;;5078624;28;20124;-63
2022/05/24 00:20:07;;;;;;;12.15;8.77;;;15.10;99.90;;;;;;5084995;28;20419;-63
2022/05/24 00:22:33;;;;;;;11.75;8.13;;;15.10;99.90;;;;;;5086919;28;20355;-63
2022/05/24 00:25:01;;;;;;;11.48;8.00;;;15.00;99.90;;;;;;5081450;28;20036;-63
2022/05/24 00:27:28;;;;;;;12.02;7.85;;;15.00;99.90;;;;;;5080775;28;20100;-63
2022/05/24 00:29:54;;;;;;;11.25;7.45;;;15.00;99.90;;;;;;5082513;28;20064;-63
2022/05/24 00:32:20;;;;;;;10.50;7.30;;;15.10;99.90;;;;;;5082481;28;20474;-65
2022/05/24 00:34:45;;;;;;;10.43;7.72;;;15.00;99.90;;;;;;5083641;28;20052;-63
2022/05/24 00:37:11;;;;;;;11.38;7.10;;;15.00;99.90;;;;;;5085590;28;20096;-63
2022/05/24 00:39:37;;;;;;;9.88;6.90;;;15.00;99.90;;;;;;5084297;28;20078;-64
2022/05/24 00:42:13;;;;;;;9.57;7.43;;;15.00;99.90;;;;;;5083518;28;20044;-65
2022/05/24 00:45:21;;;;;;;11.02;7.45;;;15.00;99.90;;;;;;5082607;28;20497;-64
2022/05/24 00:47:53;;;;;;;10.93;6.95;;;15.00;99.90;;;;;;5080753;28;20132;-63
2022/05/24 00:50:25;;;;;;;10.95;8.05;;;15.00;99.90;;;;;;5081483;28;20040;-64
2022/05/24 00:53:15;;;;;;;12.48;7.75;;;14.90;99.90;;;;;;5078046;28;20069;-64
2022/05/24 00:55:47;;;;;;;11.52;7.43;;;14.90;99.90;;;;;;5082104;28;20052;-64
2022/05/24 00:58:36;;;;;;;10.90;7.07;;;14.90;99.90;;;;;;5080549;28;20372;-63
2022/05/24 01:01:11;;;;;;;11.18;8.20;;;14.90;99.90;;;;;;5081702;28;20052;-66
2022/05/24 01:03:36;;;;;;;11.73;8.00;;;14.90;99.90;;;;;;5083188;28;20165;-63
2022/05/24 01:06:02;;;;;;;11.63;7.50;;;14.80;99.90;;;;;;5084922;28;20139;-63
2022/05/24 01:08:27;;;;;;;10.93;8.07;;;14.90;99.90;;;;;;5084994;28;20040;-63
2022/05/24 01:10:53;;;;;;;11.57;8.65;;;14.90;99.90;;;;;;5085578;28;20072;-63
2022/05/24 01:13:23;;;;;;;11.88;8.80;;;14.90;99.90;;;;;;5080844;28;20055;-63
2022/05/24 01:15:50;;;;;;;11.80;7.93;;;14.80;99.90;;;;;;5086492;28;20044;-63
2022/05/24 01:18:15;;;;;;;12.32;9.02;;;14.90;99.90;;;;;;5078001;28;20044;-64
2022/05/24 01:20:44;;;;;;;10.75;7.60;;;14.80;99.90;;;;;;5078905;28;20520;-64
2022/05/24 01:23:32;;;;;;;11.80;8.10;;;14.90;99.90;;;;;;5074403;28;20440;-65
2022/05/24 01:26:11;;;;;;;14.55;8.60;;;14.90;99.90;;;;;;5078249;28;20043;-64
2022/05/24 01:28:46;;;;;;;13.43;8.73;;;14.90;99.90;;;;;;5082306;28;20086;-64
2022/05/24 01:31:12;;;;;;;13.40;8.20;;;14.90;99.90;;;;;;5084065;28;20048;-64
2022/05/24 01:36:28;;;;;;;12.32;9.13;;;14.90;99.90;;;;;;5074805;28;20430;-63
2022/05/24 01:39:00;;;;;;;11.15;8.65;;;14.90;99.90;;;;;;5079066;28;20108;-63
2022/05/24 01:41:51;;;;;;;12.43;9.07;;;14.90;99.90;;;;;;5080309;28;20350;-62
2022/05/24 01:44:24;;;;;;;11.73;9.82;;;14.90;99.90;;;;;;5081100;28;20506;-62
2022/05/24 01:46:50;;;;;;;14.85;10.75;;;14.90;99.90;;;;;;5076664;28;20505;-64
2022/05/24 01:49:23;;;;;;;17.70;13.02;;;14.90;99.90;;;;;;5086254;28;20036;-63
2022/05/24 01:52:01;;;;;;;19.48;15.18;;;14.90;99.90;;;;;;5084331;28;20509;-63
2022/05/24 01:54:29;;;;;;;18.90;14.85;;;14.90;99.90;;;;;;5084714;28;20112;-63
2022/05/24 01:57:05;;;;;;;18.80;15.77;;;14.90;99.90;;;;;;5076367;28;20546;-65
2022/05/24 01:59:32;;;;;;;20.17;16.45;;;14.90;99.90;;;;;;5074640;28;20050;-62
2022/05/24 02:02:00;;;;;;;21.98;16.95;;;14.90;99.90;;;;;;5072283;28;20055;-63
2022/05/24 02:04:29;;;;;;;25.25;18.02;;;14.90;99.90;;;;;;5079363;28;20032;-63
2022/05/24 02:07:06;;;;;;;23.65;18.35;;;14.90;99.90;;;;;;5078667;28;20072;-65
2022/05/24 02:09:33;;;;;;;26.98;20.20;;;14.90;99.90;;;;;;5083208;28;20755;-64
2022/05/24 02:12:02;;;;;;;24.35;19.55;;;14.90;99.90;;;;;;5074728;28;20434;-63
2022/05/24 02:14:33;;;;;;;26.33;19.08;;;14.90;99.90;;;;;;5080852;28;20044;-63
2022/05/24 02:17:07;;;;;;;23.30;17.70;;;14.90;99.90;;;;;;5084586;28;20040;-62
2022/05/24 02:19:37;;;;;;;25.77;19.33;;;14.90;99.90;;;;;;5085378;28;20400;-65
2022/05/24 02:22:09;;;;;;;23.42;18.40;;;14.90;99.90;;;;;;5081758;28;20040;-64
2022/05/24 02:24:35;;;;;;;22.85;18.48;;;14.90;99.90;;;;;;5081017;28;20070;-63
2022/05/24 02:27:02;;;;;;;24.77;19.38;;;15.00;99.90;;;;;;5080720;28;20362;-63
2022/05/24 02:29:27;;;;;;;22.92;18.70;;;15.00;99.90;;;;;;5084009;28;20119;-65
2022/05/24 02:31:53;;;;;;;23.00;17.88;;;15.00;99.90;;;;;;5085226;28;20466;-64
2022/05/24 02:34:18;;;;;;;24.38;18.88;;;15.00;99.90;;;;;;5076077;28;20036;-64
2022/05/24 02:36:44;;;;;;;23.25;18.02;;;15.00;99.90;;;;;;5080591;28;20055;-63
2022/05/24 02:39:10;;;;;;;23.33;17.92;;;15.00;99.90;;;;;;5078318;28;20427;-63
2022/05/24 02:41:36;;;;;;;22.25;18.73;;;15.00;99.90;;;;;;5081483;28;20413;-64
2022/05/24 02:44:09;;;;;;;23.63;18.70;;;15.00;99.90;;;;;;5075072;28;20505;-64
2022/05/24 02:46:37;;;;;;;22.90;19.05;;;14.90;99.90;;;;;;5082418;28;20043;-63
2022/05/24 02:49:02;;;;;;;24.55;19.17;;;15.00;99.90;;;;;;5085639;28;20041;-66
2022/05/24 02:51:28;;;;;;;23.23;18.73;;;15.00;99.90;;;;;;5086841;28;20048;-63
2022/05/24 02:53:54;;;;;;;22.92;18.90;;;14.90;99.90;;;;;;5072863;28;20064;-64
2022/05/24 02:56:19;;;;;;;21.38;17.52;;;14.90;99.90;;;;;;5075785;28;20040;-64
2022/05/24 02:58:45;;;;;;;23.08;18.17;;;14.90;99.90;;;;;;5067243;28;20048;-64
2022/05/24 03:01:20;;;;;;;23.52;18.30;;;14.90;99.90;;;;;;5082679;28;20075;-63
2022/05/24 03:03:48;;;;;;;23.45;18.50;;;14.90;99.90;;;;;;5082080;28;20032;-63
2022/05/24 03:06:14;;;;;;;21.25;17.60;;;14.90;99.90;;;;;;5085651;28;20051;-64
2022/05/24 03:11:24;;;;;;;21.30;16.47;;;14.80;99.90;;;;;;5084716;28;20093;-63
2022/05/24 03:16:34;;;;;;;21.10;16.80;;;14.80;99.90;;;;;;5079178;28;20055;-63
2022/05/24 03:19:00;;;;;;;22.05;16.10;;;14.80;99.90;;;;;;5083966;28;20036;-65
2022/05/24 03:21:25;;;;;;;20.13;15.95;;;14.80;99.90;;;;;;5084922;28;20040;-63
2022/05/24 03:23:51;;;;;;;20.35;15.30;;;14.80;99.90;;;;;;5082309;28;20101;-63
2022/05/24 03:26:17;;;;;;;19.90;15.85;;;14.80;99.90;;;;;;5077067;28;20412;-63
2022/05/24 03:28:43;;;;;;;18.95;15.10;;;14.80;99.90;;;;;;5077909;28;20414;-62
2022/05/24 03:31:09;;;;;;;20.63;15.68;;;14.80;99.90;;;;;;5078008;28;20488;-63
2022/05/24 03:33:35;;;;;;;21.80;15.52;;;14.80;99.90;;;;;;5084868;28;20040;-63
2022/05/24 03:36:01;;;;;;;20.77;16.17;;;14.80;99.90;;;;;;5087020;28;20044;-63
2022/05/24 03:38:28;;;;;;;21.85;16.23;;;14.80;99.90;;;;;;5080549;28;20036;-64
2022/05/24 03:40:55;;;;;;;22.90;16.63;;;14.80;99.90;;;;;;5075970;28;20048;-65
2022/05/24 03:43:20;;;;;;;21.05;17.38;;;14.80;99.90;;;;;;5075564;28;20040;-63
2022/05/24 03:45:47;;;;;;;23.90;18.25;;;14.80;99.90;;;;;;5072086;28;20120;-64
2022/05/24 03:48:13;;;;;;;22.75;17.73;;;14.80;99.90;;;;;;5078933;28;20074;-62
2022/05/24 03:50:39;;;;;;;25.30;18.17;;;14.80;99.90;;;;;;5080104;28;20044;-63
2022/05/24 03:53:04;;;;;;;24.20;18.60;;;14.80;99.90;;;;;;5080725;28;20109;-63
2022/05/24 03:55:30;;;;;;;25.27;19.33;;;14.70;99.90;;;;;;5078779;28;20068;-64
2022/05/24 03:58:02;;;;;;;23.48;18.33;;;14.70;99.90;;;;;;5076700;28;20063;-63
2022/05/24 04:00:39;;;;;;;32.35;18.95;;;14.70;99.90;;;;;;5076535;28;20968;-65
2022/05/24 04:03:06;;;;;;;25.38;17.80;;;14.70;99.90;;;;;;5077899;28;20505;-63
2022/05/24 04:05:32;;;;;;;24.30;17.73;;;14.80;99.90;;;;;;5071778;28;20075;-63
2022/05/24 04:07:59;;;;;;;28.02;19.20;;;14.70;99.90;;;;;;5075848;28;20120;-64
2022/05/24 04:10:25;;;;;;;23.85;18.83;;;14.80;99.90;;;;;;5074035;28;20047;-63
2022/05/24 04:12:50;;;;;;;25.27;18.35;;;14.80;99.90;;;;;;5077576;28;20040;-63
2022/05/24 04:15:16;;;;;;;26.13;18.10;;;14.70;99.90;;;;;;5075360;28;20058;-64
2022/05/24 04:17:42;;;;;;;27.27;19.83;;;14.70;99.90;;;;;;5077370;28;20135;-66
2022/05/24 04:20:09;;;;;;;27.20;19.98;;;14.70;99.90;;;;;;5077847;28;20196;-64
2022/05/24 04:22:35;;;;;;;28.38;19.63;;;14.70;99.90;;;;;;5076675;28;20044;-63
2022/05/24 04:25:01;;;;;;;27.55;19.75;;;14.70;99.90;;;;;;5074281;28;20105;-63
2022/05/24 04:27:27;;;;;;;26.75;19.50;;;14.70;99.90;;;;;;5074629;28;20036;-63
2022/05/24 04:29:53;;;;;;;25.17;19.48;;;14.70;99.90;;;;;;5075827;28;20071;-63
2022/05/24 04:32:20;;;;;;;24.60;16.38;;;14.70;99.90;;;;;;5088383;28;20127;-63
2022/05/24 04:34:45;;;;;;;24.67;17.30;;;14.70;99.90;;;;;;5081515;28;20036;-63
2022/05/24 04:37:11;;;;;;;22.90;16.95;;;14.70;99.90;;;;;;5081411;28;20055;-64
2022/05/24 04:39:37;;;;;;;22.73;16.20;;;14.70;99.90;;;;;;5078582;28;20151;-64
2022/05/24 04:44:53;;;;;;;20.67;16.20;;;14.80;99.90;;;;;;5079635;28;20538;-65
2022/05/24 04:47:21;;;;;;;20.60;14.57;;;14.80;99.90;;;;;;5076282;28;20111;-65
2022/05/24 04:49:50;;;;;;;19.20;14.30;;;14.80;99.90;;;;;;5081596;28;20046;-65
2022/05/24 04:52:17;;;;;;;20.08;13.50;;;14.80;99.90;;;;;;5077449;28;20043;-64
2022/05/24 04:54:44;;;;;;;21.15;13.40;;;14.80;99.90;;;;;;5079775;28;20117;-65
2022/05/24 04:57:10;;;;;;;22.85;13.23;;;14.80;99.90;;;;;;5080574;28;20068;-64
2022/05/24 04:59:37;;;;;;;19.70;12.77;;;14.80;99.90;;;;;;5075902;28;20036;-65
2022/05/24 05:02:03;;;;;;;18.50;12.38;;;14.80;99.90;;;;;;5083839;28;20040;-67
2022/05/24 05:04:29;;;;;;;17.15;12.73;;;14.90;99.90;;;;;;5074749;28;20090;-63
2022/05/24 05:06:55;;;;;;;18.17;13.00;;;14.90;99.90;;;;;;5074021;28;20063;-64
2022/05/24 05:09:21;;;;;;;17.90;12.43;;;14.90;99.90;;;;;;5074729;28;20442;-65
2022/05/24 05:11:47;;;;;;;19.80;12.40;;;14.80;99.90;;;;;;5077530;28;20083;-64
2022/05/24 05:14:12;;;;;;;21.75;12.35;;;14.80;99.90;;;;;;5077314;28;20068;-64
2022/05/24 05:16:39;;;;;;;18.10;12.57;;;14.70;99.90;;;;;;5076990;28;20075;-64
2022/05/24 05:19:07;;;;;;;16.88;12.15;;;14.70;99.90;;;;;;5078576;28;20108;-64
2022/05/24 05:21:35;;;;;;;16.70;11.68;;;14.70;99.90;;;;;;5073521;28;20048;-64
2022/05/24 05:24:02;;;;;;;18.30;12.30;;;14.70;99.90;;;;;;5075357;28;20695;-63
2022/05/24 05:26:29;;;;;;;20.85;12.27;;;14.70;99.90;;;;;;5079103;28;20050;-63
2022/05/24 05:28:54;;;;;;;16.52;12.20;;;14.70;99.90;;;;;;5075678;28;20105;-64
2022/05/24 05:31:25;;;;;;;19.02;12.27;;;14.60;99.90;;;;;;5069617;28;20036;-63
2022/05/24 05:33:51;;;;;;;20.02;12.02;;;14.70;99.90;;;;;;5071417;28;20052;-63
2022/05/24 05:36:18;;;;;;;18.77;12.25;;;14.70;99.90;;;;;;5079050;28;20036;-63
2022/05/24 05:38:46;;;;;;;19.98;12.57;;;14.70;99.90;;;;;;5078680;28;20051;-64
2022/05/24 05:41:13;;;;;;;19.77;12.40;;;14.70;99.90;;;;;;5082098;28;20149;-64
2022/05/24 05:43:40;;;;;;;19.20;11.30;;;14.80;99.90;;;;;;5086115;28;20040;-65
2022/05/24 05:46:07;;;;;;;16.08;12.32;;;14.70;99.90;;;;;;5087878;28;20075;-64
2022/05/24 05:48:34;;;;;;;19.52;11.88;;;14.90;99.90;;;;;;5089258;28;20371;-63
2022/05/24 05:51:00;;;;;;;14.18;10.75;;;14.90;99.90;;;;;;5084572;28;20036;-64
2022/05/24 05:53:25;;;;;;;17.65;11.73;;;15.10;99.90;;;;;;5086816;28;20111;-64
2022/05/24 05:55:51;;;;;;;19.38;11.70;;;15.20;99.90;;;;;;5083890;28;20434;-66
2022/05/24 05:58:17;;;;;;;15.73;11.38;;;15.20;99.90;;;;;;5081552;28;20036;-65
2022/05/24 06:00:42;;;;;;;18.38;11.85;;;15.20;99.90;;;;;;5079160;28;20052;-64
2022/05/24 06:03:09;;;;;;;17.52;11.70;;;15.20;99.90;;;;;;5067878;28;20048;-66
2022/05/24 06:05:35;;;;;;;18.85;11.63;;;15.20;99.90;;;;;;5082400;28;20090;-66
2022/05/24 06:08:02;;;;;;;19.30;11.77;;;15.20;99.90;;;;;;5083645;28;20147;-66
2022/05/24 06:10:29;;;;;;;16.55;11.93;;;15.20;99.90;;;;;;5084824;28;20602;-65
2022/05/24 06:12:58;;;;;;;20.88;11.50;;;15.20;99.90;;;;;;5068380;28;20049;-66
2022/05/24 06:15:27;;;;;;;14.38;10.15;;;15.20;99.90;;;;;;5079407;28;20112;-67
2022/05/24 06:17:53;;;;;;;17.38;11.68;;;15.10;99.90;;;;;;5085290;28;20076;-64
2022/05/24 06:20:21;;;;;;;18.80;11.57;;;15.10;99.90;;;;;;5087853;28;20062;-66
2022/05/24 06:22:49;;;;;;;18.80;11.15;;;15.10;99.90;;;;;;5086009;28;20044;-65
2022/05/24 06:25:16;;;;;;;19.00;11.20;;;15.10;99.90;;;;;;5072639;28;20052;-66
2022/05/24 06:27:42;;;;;;;17.38;11.35;;;15.10;99.90;;;;;;5086305;28;20421;-65
2022/05/24 06:30:08;;;;;;;17.65;11.38;;;15.10;99.90;;;;;;5086732;28;20131;-64
2022/05/24 06:32:33;;;;;;;16.15;10.85;;;15.10;99.90;;;;;;5086474;28;20450;-65
2022/05/24 06:34:59;;;;;;;18.38;10.93;;;15.20;99.90;;;;;;5073068;28;20238;-66
2022/05/24 06:37:24;;;;;;;16.65;11.27;;;15.20;99.90;;;;;;5074543;28;20131;-65
2022/05/24 06:39:50;;;;;;;18.42;11.50;;;15.20;99.90;;;;;;5066864;28;20504;-66
2022/05/24 06:42:16;;;;;;;16.90;10.77;;;15.20;99.90;;;;;;5080782;28;20597;-65
2022/05/24 06:44:42;;;;;;;17.27;10.27;;;15.20;99.90;;;;;;5088110;28;20167;-65
2022/05/24 06:47:08;;;;;;;17.25;10.45;;;15.30;99.90;;;;;;5084317;28;20040;-65
2022/05/24 06:49:33;;;;;;;17.92;11.05;;;15.30;99.90;;;;;;5087110;28;20127;-64
2022/05/24 06:51:59;;;;;;;16.48;10.25;;;15.30;99.90;;;;;;5085062;28;20044;-64
2022/05/24 06:54:25;;;;;;;20.23;11.23;;;15.30;99.90;;;;;;5085993;28;20056;-65
2022/05/24 06:56:51;;;;;;;16.88;10.90;;;15.30;99.90;;;;;;5087834;28;20170;-66
2022/05/24 07:04:45;;;;;;;17.57;11.57;;;15.40;99.90;;;;;;5088533;28;20043;-64
2022/05/24 07:07:11;;;;;;;15.55;10.55;;;15.40;99.90;;;;;;5088113;28;20048;-65
2022/05/24 07:09:40;;;;;;;19.98;11.43;;;15.40;99.90;;;;;;5087491;28;20079;-65
2022/05/24 07:12:06;;;;;;;14.85;10.82;;;15.40;99.90;;;;;;5090491;28;20054;-64
2022/05/24 07:14:35;;;;;;;18.15;11.07;;;15.50;99.90;;;;;;5090485;28;20495;-64
2022/05/24 07:17:00;;;;;;;17.10;10.73;;;15.50;99.90;;;;;;5091145;28;20501;-64
2022/05/24 07:19:27;;;;;;;15.65;10.27;;;15.50;99.90;;;;;;5089055;28;20040;-65
2022/05/24 07:21:52;;;;;;;18.73;12.05;;;15.60;99.90;;;;;;5089688;28;20468;-65
2022/05/24 07:24:18;;;;;;;15.15;10.18;;;15.60;99.90;;;;;;5089647;28;20059;-65
2022/05/24 07:26:44;;;;;;;16.88;11.18;;;15.50;99.90;;;;;;5091167;28;20052;-64
2022/05/24 07:29:10;;;;;;;14.32;10.50;;;15.40;99.90;;;;;;5087643;28;20128;-65
2022/05/24 07:31:38;;;;;;;20.17;10.88;;;15.50;99.90;;;;;;5091402;28;20059;-65
2022/05/24 07:34:03;;;;;;;14.80;10.27;;;15.60;99.90;;;;;;5088686;28;20044;-64
2022/05/24 07:36:29;;;;;;;16.65;10.70;;;15.70;99.90;;;;;;5086439;28;20047;-64
2022/05/24 07:38:55;;;;;;;18.15;10.98;;;15.70;99.90;;;;;;5091180;28;20051;-64
2022/05/24 07:46:49;;;;;;;14.52;9.38;;;16.10;99.90;;;;;;5088868;28;20127;-65
2022/05/24 07:49:14;;;;;;;15.43;10.10;;;16.20;99.90;;;;;;5087973;28;20119;-64
2022/05/24 07:51:41;;;;;;;14.45;9.45;;;16.30;99.90;;;;;;5088405;28;20130;-65
2022/05/24 07:54:07;;;;;;;14.80;8.68;;;16.40;99.90;;;;;;5087945;28;20052;-64
2022/05/24 07:56:33;;;;;;;12.05;7.72;;;16.70;99.90;;;;;;5089289;28;20119;-64
2022/05/24 07:58:58;;;;;;;10.10;6.50;;;16.80;99.90;;;;;;5089916;28;20047;-64
2022/05/24 08:01:24;;;;;;;11.25;6.15;;;16.80;99.90;;;;;;5069961;28;20198;-66
2022/05/24 08:03:49;;;;;;;9.07;6.20;;;16.80;99.90;;;;;;5069588;28;20383;-65
2022/05/24 08:06:17;;;;;;;11.68;5.43;;;17.00;99.90;;;;;;5085664;28;20036;-65
2022/05/24 08:08:43;;;;;;;10.55;4.97;;;17.30;99.90;;;;;;5086142;28;20044;-64
2022/05/24 08:11:09;;;;;;;8.13;4.53;;;17.40;99.90;;;;;;5088564;28;20165;-64
2022/05/24 08:13:35;;;;;;;7.78;4.20;;;17.60;99.90;;;;;;5091120;28;20127;-65
2022/05/24 08:16:02;;;;;;;7.72;4.30;;;17.70;99.90;;;;;;5090096;28;20040;-64
2022/05/24 08:18:28;;;;;;;8.95;4.63;;;17.70;99.90;;;;;;5085189;28;20039;-66
2022/05/24 08:20:55;;;;;;;7.43;4.22;;;17.70;99.90;;;;;;5079584;28;20051;-64
2022/05/24 08:23:22;;;;;;;8.00;3.80;;;17.70;99.90;;;;;;5101287;28;20383;-64
2022/05/24 08:25:48;;;;;;;6.45;3.47;;;17.80;99.90;;;;;;5068759;28;20059;-65
2022/05/24 08:28:13;;;;;;;5.93;3.47;;;18.00;99.90;;;;;;5081295;28;20036;-64
2022/05/24 08:30:40;;;;;;;7.22;3.30;;;18.00;99.90;;;;;;5089664;28;20043;-64
2022/05/24 08:33:06;;;;;;;7.28;3.65;;;18.10;99.90;;;;;;5087607;28;20044;-64
2022/05/24 08:35:34;;;;;;;10.68;4.10;;;18.10;99.90;;;;;;5077865;28;20070;-65
2022/05/24 08:38:01;;;;;;;6.75;3.92;;;18.10;99.90;;;;;;5068527;28;20040;-66
2022/05/24 08:40:27;;;;;;;8.13;4.30;;;18.10;99.90;;;;;;5089081;28;21348;-64
2022/05/24 08:42:59;;;;;;;8.02;4.05;;;18.20;99.90;;;;;;5088514;28;20059;-65
2022/05/24 08:48:28;;;;;;;10.02;4.63;;;18.30;99.90;;;;;;5087832;28;20048;-65
2022/05/24 08:51:08;;;;;;;7.88;4.28;;;18.40;99.90;;;;;;5082587;28;20048;-65
2022/05/24 08:53:39;;;;;;;7.80;4.32;;;18.40;99.90;;;;;;5085681;28;20070;-65
2022/05/24 08:56:07;;;;;;;8.23;4.13;;;18.20;99.90;;;;;;5088583;28;20505;-65
2022/05/24 08:58:40;;;;;;;9.48;4.53;;;18.10;99.90;;;;;;5088864;28;20043;-65
2022/05/24 09:01:15;;;;;;;7.72;4.30;;;17.90;99.90;;;;;;5085888;28;20056;-64
2022/05/24 09:03:41;;;;;;;8.85;4.40;;;17.70;99.90;;;;;;5089365;28;20588;-65
2022/05/24 09:06:29;;;;;;;8.65;4.50;;;17.70;99.90;;;;;;5086680;28;20097;-66
2022/05/24 09:09:20;;;;;;;7.28;4.40;;;17.60;99.90;;;;;;5077177;28;20401;-65
2022/05/24 09:12:07;;;;;;;8.13;4.20;;;17.70;99.90;;;;;;5079655;28;20090;-65
2022/05/24 09:15:05;;;;;;;7.53;4.65;;;17.80;99.90;;;;;;5089363;28;20063;-65
2022/05/24 09:17:42;;;;;;;7.45;4.20;;;17.90;99.90;;;;;;5087767;28;20044;-66
2022/05/24 09:20:29;;;;;;;7.28;4.30;;;18.10;99.90;;;;;;5087938;28;20047;-64
2022/05/24 09:23:01;;;;;;;8.05;4.40;;;18.00;99.90;;;;;;5087001;28;20046;-64
2022/05/24 09:25:26;;;;;;;6.85;4.30;;;17.80;99.90;;;;;;5088890;28;20079;-64
2022/05/24 09:27:54;;;;;;;7.93;3.83;;;18.00;99.90;;;;;;5085891;28;20450;-64
2022/05/24 09:30:20;;;;;;;6.53;3.72;;;18.00;99.90;;;;;;5086592;28;20131;-64
2022/05/24 09:32:46;;;;;;;7.90;2.38;;;18.10;99.90;;;;;;5087882;28;20127;-64
2022/05/24 09:35:18;;;;;;;4.72;2.33;;;17.90;99.90;;;;;;5086842;28;20032;-64
2022/05/24 09:38:03;;;;;;;4.47;2.05;;;17.90;99.90;;;;;;5083247;28;20044;-66
2022/05/24 09:40:31;;;;;;;4.57;1.80;;;18.00;99.90;;;;;;5088227;28;20083;-65
2022/05/24 09:43:19;;;;;;;5.45;2.00;;;18.20;99.90;;;;;;5086067;28;20576;-64
2022/05/24 09:45:52;;;;;;;4.38;1.50;;;18.10;99.90;;;;;;5089625;28;20435;-65
2022/05/24 09:48:28;;;;;;;3.28;1.50;;;17.70;99.90;;;;;;5078573;28;20041;-64
2022/05/24 09:50:56;;;;;;;4.18;1.77;;;17.40;99.90;;;;;;5085674;28;20126;-65
2022/05/24 09:53:26;;;;;;;3.88;1.80;;;17.40;99.90;;;;;;5087488;28;20058;-64
2022/05/24 09:55:55;;;;;;;6.10;1.80;;;17.40;99.90;;;;;;5088220;28;20212;-65
2022/05/24 09:58:26;;;;;;;5.50;1.85;;;17.50;99.90;;;;;;5085972;28;20442;-65
2022/05/24 10:01:11;;;;;;;4.70;1.90;;;17.80;99.90;;;;;;5086183;28;20115;-64
2022/05/24 10:03:43;;;;;;;4.43;2.08;;;17.90;99.90;;;;;;5085881;28;20040;-65
2022/05/24 10:06:10;;;;;;;5.30;1.98;;;18.10;99.90;;;;;;5081425;28;20113;-65
2022/05/24 10:08:50;;;;;;;4.35;2.38;;;18.40;99.90;;;;;;5077585;28;20047;-65
2022/05/24 10:11:38;;;;;;;2.55;1.38;;;18.30;99.90;;;;;;5082743;28;20040;-65
2022/05/24 10:14:25;;;;;;;1.55;0.50;;;17.90;99.90;;;;;;5087765;28;20057;-64
2022/05/24 10:17:18;;;;;;;2.13;0.52;;;17.20;99.90;;;;;;5089357;28;20040;-64
2022/05/24 10:19:50;;;;;;;6.35;0.95;;;16.80;99.90;;;;;;5089932;28;20051;-64
2022/05/24 10:22:21;;;;;;;1.65;0.73;;;16.30;99.90;;;;;;5085902;28;20520;-64
2022/05/24 10:25:23;;;;;;;1.60;0.70;;;16.00;99.90;;;;;;5085153;28;20153;-64
2022/05/24 10:28:13;;;;;;;2.25;0.80;;;15.70;99.90;;;;;;5049235;28;20565;-65
2022/05/24 10:30:45;;;;;;;2.35;0.90;;;15.60;99.90;;;;;;5086245;28;20059;-64
2022/05/24 10:39:56;;;;;;;2.42;1.20;;;15.20;99.90;;;;;;5083044;28;20101;-65
2022/05/24 10:42:36;;;;;;;4.75;1.23;;;15.00;99.90;;;;;;5087553;28;20136;-65
2022/05/24 10:45:04;;;;;;;4.32;1.52;;;15.00;99.90;;;;;;5087954;28;20047;-65
2022/05/24 10:47:41;;;;;;;3.03;1.58;;;15.10;99.90;;;;;;5085930;28;20064;-65
2022/05/24 10:50:13;;;;;;;4.25;1.73;;;15.10;99.90;;;;;;5091191;28;20382;-64
2022/05/24 10:52:52;;;;;;;5.50;2.00;;;15.20;99.90;;;;;;5082641;28;20076;-64
2022/05/24 10:55:25;;;;;;;6.20;1.80;;;15.20;99.90;;;;;;5091256;28;20063;-65
2022/05/24 10:58:09;;;;;;;5.05;2.28;;;15.30;99.90;;;;;;5091586;28;20047;-62
2022/05/24 11:00:40;;;;;;;4.50;2.20;;;15.40;99.90;;;;;;5084606;28;20064;-63
2022/05/24 11:03:15;;;;;;;6.88;2.75;;;15.60;99.90;;;;;;5079155;28;20075;-63
2022/05/24 11:05:59;;;;;;;5.68;2.60;;;15.80;99.90;;;;;;5088146;28;20189;-63
2022/05/24 11:08:52;;;;;;;4.47;2.47;;;15.70;99.90;;;;;;5088616;28;20040;-65
2022/05/24 11:11:42;;;;;;;5.30;2.78;;;15.60;99.90;;;;;;5088555;28;20481;-64
2022/05/24 11:14:16;;;;;;;6.32;2.78;;;15.60;99.90;;;;;;5084962;28;20339;-64
2022/05/24 11:16:46;;;;;;;5.95;2.42;;;15.50;99.90;;;;;;5079708;28;20095;-64
2022/05/24 11:19:38;;;;;;;4.97;2.20;;;15.50;99.90;;;;;;5086996;28;20040;-64
2022/05/24 11:22:09;;;;;;;3.25;1.60;;;15.60;99.90;;;;;;5091879;28;20166;-64
2022/05/24 11:24:46;;;;;;;3.88;1.52;;;15.70;99.90;;;;;;5092070;28;20044;-64
2022/05/24 11:27:17;;;;;;;3.55;1.13;;;15.70;99.90;;;;;;5090078;28;20056;-64
2022/05/24 11:29:47;;;;;;;4.18;1.10;;;15.80;99.90;;;;;;5089408;28;20047;-66
2022/05/24 11:32:38;;;;;;;2.15;1.00;;;15.80;99.90;;;;;;5074063;28;20200;-64
2022/05/24 11:35:18;;;;;;;2.58;0.95;;;15.90;99.90;;;;;;5082366;28;20048;-64
2022/05/24 11:37:53;;;;;;;1.73;0.90;;;15.90;99.90;;;;;;5088901;28;20058;-64
2022/05/24 11:40:36;;;;;;;3.78;1.05;;;16.00;99.90;;;;;;5089688;28;20048;-65
2022/05/24 11:43:43;;;;;;;2.53;0.95;;;16.20;99.90;;;;;;5089099;28;20044;-67
2022/05/24 11:46:30;;;;;;;2.83;1.10;;;16.50;99.90;;;;;;5087275;28;20048;-66
2022/05/24 11:48:57;;;;;;;2.45;1.10;;;17.00;99.90;;;;;;5090114;28;20110;-65
2022/05/24 11:51:36;;;;;;;2.97;1.10;;;17.30;99.90;;;;;;5085555;28;20052;-66
2022/05/24 11:54:04;;;;;;;5.22;1.30;;;17.60;99.90;;;;;;5075110;28;20371;-68
2022/05/24 11:56:30;;;;;;;5.63;1.40;;;17.80;99.90;;;;;;5078431;28;20054;-65
2022/05/24 11:59:03;;;;;;;3.20;0.98;;;18.20;99.90;;;;;;5091031;28;20132;-65
2022/05/24 12:01:40;;;;;;;3.25;0.90;;;18.20;99.90;;;;;;5088798;28;20064;-65
2022/05/24 12:10:24;;;;;;;3.72;1.00;;;17.70;99.90;;;;;;5089373;28;20051;-67
2022/05/24 12:13:03;;;;;;;2.55;0.82;;;17.70;99.90;;;;;;5083293;28;20048;-65
2022/05/24 12:15:32;;;;;;;3.45;1.20;;;17.80;99.90;;;;;;5076733;28;20044;-65
2022/05/24 12:17:58;;;;;;;3.03;1.08;;;17.90;99.90;;;;;;5089601;28;20058;-65
2022/05/24 12:20:35;;;;;;;2.72;0.90;;;18.20;99.90;;;;;;5090041;28;20351;-66
2022/05/24 12:23:07;;;;;;;2.97;1.02;;;18.10;99.90;;;;;;5085056;28;20163;-65
2022/05/24 12:26:12;;;;;;;2.35;1.00;;;18.10;99.90;;;;;;5082178;28;20048;-66
2022/05/24 12:28:37;;;;;;;2.65;1.10;;;18.30;99.90;;;;;;5046503;28;20618;-65
2022/05/24 12:31:18;;;;;;;3.85;0.88;;;18.30;99.90;;;;;;5072000;28;20227;-66
2022/05/24 12:33:52;;;;;;;2.75;0.85;;;18.40;99.90;;;;;;5087093;28;20139;-64
2022/05/24 12:36:23;;;;;;;4.63;1.52;;;18.60;99.90;;;;;;5088576;28;20146;-65
2022/05/24 12:39:12;;;;;;;4.93;1.40;;;18.50;99.90;;;;;;5077634;28;20114;-65
2022/05/24 12:41:49;;;;;;;3.22;1.08;;;18.90;99.90;;;;;;5069291;28;20340;-66
2022/05/24 12:44:21;;;;;;;2.30;1.10;;;18.90;99.60;;;;;;5083310;28;20448;-70
2022/05/24 12:46:56;;;;;;;4.60;1.63;;;19.10;99.90;;;;;;5089273;28;20143;-66
2022/05/24 12:49:28;;;;;;;6.35;1.65;;;19.10;99.90;;;;;;5089691;28;20120;-66
2022/05/24 12:52:00;;;;;;;3.92;1.70;;;19.40;99.90;;;;;;5084929;28;20325;-65
2022/05/24 12:54:32;;;;;;;4.05;1.77;;;19.60;99.90;;;;;;5089316;28;20131;-66
2022/05/24 12:56:59;;;;;;;4.57;1.48;;;19.60;98.90;;;;;;5088051;28;20511;-66
2022/05/24 12:59:34;;;;;;;5.07;1.40;;;19.30;97.90;;;;;;5085664;28;20075;-65
2022/05/24 13:02:32;;;;;;;1.52;0.80;;;19.50;97.60;;;;;;5082433;28;20151;-65
2022/05/24 13:05:07;;;;;;;2.90;0.80;;;19.40;96.60;;;;;;5068337;28;20056;-65
2022/05/24 13:07:40;;;;;;;2.10;0.80;;;19.60;93.80;;;;;;5087850;28;20120;-67
2022/05/24 13:10:23;;;;;;;2.80;1.08;;;19.30;94.20;;;;;;5088045;28;20040;-65
2022/05/24 13:12:51;;;;;;;3.55;1.30;;;19.10;94.00;;;;;;5069696;28;20465;-66
2022/05/24 13:15:20;;;;;;;4.72;1.30;;;19.10;95.90;;;;;;5072264;28;20090;-66
2022/05/24 13:17:51;;;;;;;2.97;1.20;;;19.20;96.30;;;;;;5089127;28;20055;-66
2022/05/24 13:20:16;;;;;;;3.83;1.40;;;19.30;96.00;;;;;;5088263;28;20071;-67
2022/05/24 13:22:52;;;;;;;5.00;1.10;;;19.20;95.70;;;;;;5080858;28;20068;-66
2022/05/24 13:25:27;;;;;;;2.72;0.95;;;19.30;93.10;;;;;;5088176;28;20115;-65
2022/05/24 13:27:58;;;;;;;4.38;1.20;;;19.30;91.80;;;;;;5087626;28;20054;-65
2022/05/24 13:33:35;;;;;;;4.30;1.10;;;19.30;91.00;;;;;;5087465;28;20450;-65
2022/05/24 13:36:15;;;;;;;3.33;1.13;;;19.30;92.10;;;;;;5088554;28;20118;-68